createdAt,value
2022-12-25T00:03:38.413Z,24.23
2022-12-25T00:07:42.600Z,17.33
2022-12-25T00:11:45.709Z,19.73
2022-12-25T00:15:48.511Z,18.17
2022-12-25T00:19:51.975Z,19.73
2022-12-25T00:23:57.532Z,16.27
2022-12-25T00:28:00.207Z,16.10
2022-12-25T00:32:02.994Z,13.27
2022-12-25T00:36:07.224Z,15.50
2022-12-25T00:40:12.227Z,13.77
2022-12-25T00:44:14.958Z,15.03
2022-12-25T00:48:17.650Z,13.60
2022-12-25T00:52:20.595Z,15.63
2022-12-25T00:56:25.450Z,16.93
2022-12-25T01:00:28.140Z,16.13
2022-12-25T01:04:30.829Z,14.27
2022-12-25T01:08:35.234Z,15.50
2022-12-25T01:12:41.708Z,13.90
2022-12-25T01:16:44.783Z,16.47
2022-12-25T01:20:47.696Z,13.33
2022-12-25T01:24:50.422Z,16.07
2022-12-25T01:28:54.998Z,13.10
2022-12-25T01:32:57.953Z,13.27
2022-12-25T01:37:01.104Z,15.00
2022-12-25T01:41:04.080Z,10.37
2022-12-25T01:45:37.220Z,14.20
2022-12-25T01:49:41.174Z,11.83
2022-12-25T01:53:43.847Z,9.53
2022-12-25T01:57:47.170Z,11.77
2022-12-25T02:01:51.568Z,11.07
2022-12-25T02:05:55.585Z,11.63
2022-12-25T02:09:58.528Z,11.60
2022-12-25T02:14:01.446Z,12.07
2022-12-25T02:18:10.089Z,9.90
2022-12-25T02:22:18.172Z,11.07
2022-12-25T02:26:33.050Z,10.47
2022-12-25T02:30:41.899Z,11.27
2022-12-25T02:34:49.016Z,12.03
2022-12-25T02:39:12.591Z,9.33
2022-12-25T02:43:36.446Z,7.57
2022-12-25T02:47:58.028Z,10.50
2022-12-25T02:52:21.012Z,7.87
2022-12-25T02:56:41.920Z,6.83
2022-12-25T03:01:06.394Z,6.80
2022-12-25T03:05:30.465Z,7.00
2022-12-25T03:09:54.724Z,7.87
2022-12-25T03:14:19.597Z,8.40
2022-12-25T03:18:26.706Z,9.03
2022-12-25T03:22:50.099Z,6.80
2022-12-25T03:26:55.840Z,7.00
2022-12-25T03:31:14.468Z,5.83
2022-12-25T03:35:25.553Z,7.00
2022-12-25T03:39:52.861Z,6.53
2022-12-25T03:44:18.245Z,8.27
2022-12-25T03:48:47.101Z,6.90
2022-12-25T03:53:07.462Z,7.67
2022-12-25T03:57:30.108Z,8.17
2022-12-25T04:01:55.540Z,7.27
2022-12-25T04:06:16.111Z,6.27
2022-12-25T04:10:36.448Z,8.47
2022-12-25T04:14:57.925Z,6.47
2022-12-25T04:19:17.974Z,4.63
2022-12-25T04:23:38.181Z,6.47
2022-12-25T04:27:58.448Z,6.97
2022-12-25T04:32:20.642Z,5.63
2022-12-25T04:36:23.424Z,5.20
2022-12-25T04:40:26.458Z,5.63
2022-12-25T04:44:29.225Z,7.30
2022-12-25T04:48:35.012Z,4.87
2022-12-25T04:52:38.179Z,4.90
2022-12-25T04:56:45.507Z,5.50
2022-12-25T05:00:48.833Z,5.30
2022-12-25T05:04:52.920Z,4.10
2022-12-25T05:08:55.601Z,5.70
2022-12-25T05:12:58.269Z,6.70
2022-12-25T05:17:01.003Z,4.17
2022-12-25T05:21:05.673Z,7.20
2022-12-25T05:25:09.058Z,3.70
2022-12-25T05:29:11.770Z,6.33
2022-12-25T05:33:14.862Z,6.27
2022-12-25T05:37:18.950Z,4.53
2022-12-25T05:41:21.835Z,6.23
2022-12-25T05:45:24.461Z,5.43
2022-12-25T05:49:27.411Z,4.07
2022-12-25T05:53:31.449Z,4.37
2022-12-25T05:57:34.391Z,4.07
2022-12-25T06:01:37.178Z,6.97
2022-12-25T06:05:40.031Z,4.27
2022-12-25T06:09:44.136Z,5.83
2022-12-25T06:13:50.498Z,4.77
2022-12-25T06:17:53.165Z,4.77
2022-12-25T06:21:56.148Z,6.10
2022-12-25T06:26:00.721Z,8.63
2022-12-25T06:30:05.801Z,8.47
2022-12-25T06:34:08.711Z,4.87
2022-12-25T06:38:11.481Z,3.97
2022-12-25T06:42:15.834Z,4.43
2022-12-25T06:46:19.590Z,3.07
2022-12-25T06:50:22.675Z,5.10
2022-12-25T06:54:25.367Z,4.37
2022-12-25T06:58:29.476Z,4.87
2022-12-25T07:02:32.834Z,4.30
2022-12-25T07:06:35.707Z,4.83
2022-12-25T07:10:38.386Z,4.17
2022-12-25T07:14:42.608Z,4.10
2022-12-25T07:18:45.310Z,4.07
2022-12-25T07:22:48.283Z,3.77
2022-12-25T07:26:52.525Z,6.17
2022-12-25T07:30:56.945Z,5.37
2022-12-25T07:34:59.929Z,5.40
2022-12-25T07:39:02.928Z,3.47
2022-12-25T07:43:05.925Z,3.90
2022-12-25T07:47:10.223Z,4.63
2022-12-25T07:51:14.596Z,6.13
2022-12-25T07:55:17.411Z,4.40
2022-12-25T07:59:20.485Z,3.70
2022-12-25T08:03:24.802Z,4.87
2022-12-25T08:07:27.994Z,5.33
2022-12-25T08:11:30.724Z,4.63
2022-12-25T08:15:33.414Z,7.27
2022-12-25T08:19:37.559Z,5.80
2022-12-25T08:23:42.564Z,10.07
2022-12-25T08:27:45.336Z,6.23
2022-12-25T08:31:48.139Z,5.83
2022-12-25T08:35:52.286Z,5.70
2022-12-25T08:39:55.314Z,5.43
2022-12-25T08:43:58.270Z,4.97
2022-12-25T08:48:01.216Z,6.13
2022-12-25T08:52:05.457Z,5.30
2022-12-25T08:56:08.602Z,4.40
2022-12-25T09:00:12.147Z,5.47
2022-12-25T09:04:15.158Z,6.53
2022-12-25T09:08:19.697Z,6.40
2022-12-25T09:12:22.755Z,5.37
2022-12-25T09:16:25.740Z,4.43
2022-12-25T09:20:28.744Z,5.60
2022-12-25T09:24:32.837Z,5.70
2022-12-25T09:28:36.044Z,6.60
2022-12-25T09:32:40.288Z,6.63
2022-12-25T09:36:43.549Z,7.17
2022-12-25T09:40:48.070Z,5.23
2022-12-25T09:44:54.985Z,6.07
2022-12-25T09:49:00.636Z,4.37
2022-12-25T09:53:06.837Z,5.03
2022-12-25T09:57:13.600Z,4.43
2022-12-25T10:01:20.548Z,7.53
2022-12-25T10:05:35.943Z,6.80
2022-12-25T10:09:48.650Z,3.37
2022-12-25T10:14:06.030Z,4.37
2022-12-25T10:18:38.377Z,3.67
2022-12-25T10:22:43.201Z,3.77
2022-12-25T10:26:46.134Z,4.07
2022-12-25T10:30:53.028Z,4.07
2022-12-25T10:34:55.885Z,3.10
2022-12-25T10:38:58.805Z,2.97
2022-12-25T10:43:08.280Z,4.37
2022-12-25T10:47:12.379Z,3.03
2022-12-25T10:51:15.187Z,3.57
2022-12-25T10:55:24.941Z,3.23
2022-12-25T10:59:32.185Z,2.67
2022-12-25T11:03:38.772Z,2.87
2022-12-25T11:07:53.838Z,3.33
2022-12-25T11:11:56.735Z,3.90
2022-12-25T11:16:09.376Z,2.87
2022-12-25T11:20:21.038Z,4.37
2022-12-25T11:24:26.928Z,3.87
2022-12-25T11:28:31.949Z,3.53
2022-12-25T11:32:39.101Z,2.60
2022-12-25T11:36:46.525Z,2.37
2022-12-25T11:40:52.445Z,3.90
2022-12-25T11:44:59.471Z,2.57
2022-12-25T11:49:08.242Z,2.43
2022-12-25T11:53:18.693Z,4.47
2022-12-25T11:57:22.600Z,4.37
2022-12-25T12:01:31.685Z,4.03
2022-12-25T12:05:37.746Z,3.90
2022-12-25T12:09:47.181Z,2.73
2022-12-25T12:14:00.970Z,3.80
2022-12-25T12:18:10.272Z,3.23
2022-12-25T12:22:21.740Z,4.03
2022-12-25T12:26:27.596Z,3.43
2022-12-25T12:30:32.701Z,5.20
2022-12-25T12:34:42.471Z,2.43
2022-12-25T12:38:46.069Z,2.70
2022-12-25T12:42:50.636Z,2.80
2022-12-25T12:46:55.479Z,2.50
2022-12-25T12:51:06.447Z,2.30
2022-12-25T12:55:13.105Z,2.47
2022-12-25T12:59:17.597Z,2.63
2022-12-25T13:03:29.668Z,2.73
2022-12-25T13:07:44.413Z,2.17
2022-12-25T13:11:47.336Z,2.70
2022-12-25T13:15:52.331Z,2.47
2022-12-25T13:19:56.958Z,2.40
2022-12-25T13:24:00.957Z,2.00
2022-12-25T13:28:05.467Z,2.33
2022-12-25T13:32:20.151Z,2.97
2022-12-25T13:36:23.014Z,3.20
2022-12-25T13:40:28.022Z,3.63
2022-12-25T13:44:32.738Z,4.23
2022-12-25T13:48:37.522Z,4.13
2022-12-25T13:52:40.428Z,2.60
2022-12-25T13:56:48.136Z,2.73
2022-12-25T14:00:52.989Z,3.10
2022-12-25T14:04:57.494Z,2.13
2022-12-25T14:09:00.783Z,2.17
2022-12-25T14:13:06.281Z,1.90
2022-12-25T14:17:10.337Z,2.50
2022-12-25T14:21:17.715Z,1.63
2022-12-25T14:25:21.041Z,3.63
2022-12-25T14:29:28.366Z,2.10
2022-12-25T14:33:36.517Z,2.23
2022-12-25T14:37:41.306Z,2.60
2022-12-25T14:41:53.603Z,3.00
2022-12-25T14:45:57.592Z,5.67
2022-12-25T14:50:00.952Z,4.70
2022-12-25T14:54:06.706Z,3.30
2022-12-25T14:58:20.928Z,2.60
2022-12-25T15:02:23.941Z,2.90
2022-12-25T15:06:27.152Z,3.40
2022-12-25T15:10:59.561Z,5.47
2022-12-25T15:14:54.600Z,3.67
2022-12-25T15:18:57.568Z,2.90
2022-12-25T15:23:19.398Z,3.23
2022-12-25T15:27:24.339Z,3.10
2022-12-25T15:31:28.618Z,3.33
2022-12-25T15:35:32.709Z,3.80
2022-12-25T15:39:35.477Z,3.83
2022-12-25T15:43:40.988Z,8.80
2022-12-25T15:47:44.363Z,8.60
2022-12-25T15:51:47.733Z,11.37
2022-12-25T15:55:50.508Z,5.90
2022-12-25T15:59:54.684Z,5.27
2022-12-25T16:03:57.443Z,3.77
2022-12-25T16:08:00.616Z,3.13
2022-12-25T16:12:03.430Z,3.80
2022-12-25T16:16:08.771Z,3.60
2022-12-25T16:20:12.115Z,4.10
2022-12-25T16:24:15.296Z,3.60
2022-12-25T16:28:18.257Z,3.77
2022-12-25T16:32:22.837Z,4.63
2022-12-25T16:36:27.144Z,4.20
2022-12-25T16:40:30.395Z,6.37
2022-12-25T16:44:33.096Z,4.90
2022-12-25T16:48:37.439Z,4.10
2022-12-25T16:52:40.195Z,4.43
2022-12-25T16:56:42.871Z,5.67
2022-12-25T17:00:49.276Z,4.50
2022-12-25T17:04:54.598Z,3.50
2022-12-25T17:08:59.380Z,3.50
2022-12-25T17:13:02.141Z,4.27
2022-12-25T17:17:04.977Z,4.67
2022-12-25T17:21:09.279Z,4.77
2022-12-25T17:25:12.440Z,4.23
2022-12-25T17:29:21.663Z,4.63
2022-12-25T17:33:24.606Z,5.70
2022-12-25T17:37:29.001Z,5.43
2022-12-25T17:41:32.046Z,4.83
2022-12-25T17:45:37.434Z,4.73
2022-12-25T17:49:40.453Z,4.33
2022-12-25T17:53:47.482Z,4.73
2022-12-25T17:57:50.881Z,4.87
2022-12-25T18:01:53.892Z,5.77
2022-12-25T18:05:56.700Z,4.97
2022-12-25T18:10:01.173Z,4.83
2022-12-25T18:14:06.063Z,5.43
2022-12-25T18:18:10.071Z,4.80
2022-12-25T18:22:12.852Z,16.33
2022-12-25T18:26:17.313Z,12.77
2022-12-25T18:30:20.430Z,22.63
2022-12-25T18:34:23.346Z,18.40
2022-12-25T18:38:26.477Z,7.00
2022-12-25T18:42:43.361Z,4.93
2022-12-25T18:46:46.093Z,5.97
2022-12-25T18:50:56.154Z,6.40
2022-12-25T18:54:58.912Z,4.90
2022-12-25T18:59:03.092Z,5.37
2022-12-25T19:03:06.034Z,10.47
2022-12-25T19:07:09.084Z,6.07
2022-12-25T19:11:11.965Z,6.03
2022-12-25T19:15:16.453Z,8.63
2022-12-25T19:19:19.518Z,5.70
2022-12-25T19:23:22.224Z,5.67
2022-12-25T19:27:25.009Z,8.30
2022-12-25T19:31:31.399Z,7.33
2022-12-25T19:35:34.214Z,5.47
2022-12-25T19:39:36.994Z,6.63
2022-12-25T19:43:41.370Z,8.17
2022-12-25T19:47:45.774Z,7.50
2022-12-25T19:51:48.779Z,10.33
2022-12-25T19:55:52.343Z,8.33
2022-12-25T19:59:55.118Z,7.63
2022-12-25T20:03:59.532Z,7.87
2022-12-25T20:08:02.484Z,12.67
2022-12-25T20:12:05.808Z,31.63
2022-12-25T20:16:10.148Z,21.87
2022-12-25T20:20:14.751Z,23.23
2022-12-25T20:24:17.506Z,13.23
2022-12-25T20:28:20.329Z,11.00
2022-12-25T20:32:23.138Z,7.50
2022-12-25T20:36:32.794Z,6.57
2022-12-25T20:41:00.071Z,6.70
2022-12-25T20:45:00.318Z,6.77
2022-12-25T20:49:03.631Z,6.20
2022-12-25T20:53:07.794Z,7.17
2022-12-25T20:57:10.835Z,6.30
2022-12-25T21:01:14.985Z,4.70
2022-12-25T21:05:18.034Z,5.93
2022-12-25T21:09:22.174Z,5.30
2022-12-25T21:13:26.109Z,5.10
2022-12-25T21:17:28.918Z,7.47
2022-12-25T21:21:31.829Z,5.43
2022-12-25T21:25:36.553Z,5.03
2022-12-25T21:29:39.701Z,5.10
2022-12-25T21:33:55.038Z,5.43
2022-12-25T21:37:58.065Z,5.13
2022-12-25T21:42:04.432Z,5.17
2022-12-25T21:46:08.858Z,7.53
2022-12-25T21:50:30.811Z,9.10
2022-12-25T21:54:35.542Z,9.93
2022-12-25T21:58:39.644Z,10.43
2022-12-25T22:02:42.744Z,10.73
2022-12-25T22:07:03.383Z,9.83
2022-12-25T22:11:06.563Z,8.60
2022-12-25T22:15:10.842Z,7.40
2022-12-25T22:19:30.829Z,9.97
2022-12-25T22:23:33.542Z,7.20
2022-12-25T22:27:38.740Z,4.73
2022-12-25T22:31:47.010Z,4.43
2022-12-25T22:35:50.221Z,5.13
2022-12-25T22:39:53.000Z,4.83
2022-12-25T22:48:20.005Z,3.60
2022-12-25T22:52:22.811Z,4.83
2022-12-25T22:56:25.573Z,3.70
2022-12-25T23:00:28.336Z,4.03
2022-12-25T23:04:32.487Z,5.33
2022-12-25T23:08:35.321Z,6.50
2022-12-25T23:12:55.474Z,6.27
2022-12-25T23:16:58.199Z,6.60
2022-12-25T23:21:20.611Z,8.07
2022-12-25T23:25:40.901Z,5.13
2022-12-25T23:29:43.631Z,3.97
2022-12-25T23:33:46.371Z,3.17
2022-12-25T23:37:53.020Z,3.17
2022-12-25T23:41:56.201Z,3.37
2022-12-25T23:45:59.035Z,3.07
2022-12-25T23:50:01.787Z,3.57
2022-12-25T23:54:06.547Z,3.00
2022-12-25T23:58:09.324Z,3.07
